createdAt,value
2022-09-12T00:02:04.596Z,14.20
2022-09-12T00:04:36.579Z,14.10
2022-09-12T00:07:04.920Z,14.20
2022-09-12T00:09:35.378Z,14.10
2022-09-12T00:12:05.333Z,14.00
2022-09-12T00:14:48.054Z,13.90
2022-09-12T00:17:17.733Z,14.00
2022-09-12T00:19:47.473Z,14.10
2022-09-12T00:22:17.813Z,14.20
2022-09-12T00:24:45.919Z,14.20
2022-09-12T00:27:20.537Z,14.20
2022-09-12T00:29:51.478Z,14.20
2022-09-12T00:32:20.394Z,14.10
2022-09-12T00:34:51.689Z,14.00
2022-09-12T00:37:20.258Z,13.90
2022-09-12T00:39:48.402Z,13.90
2022-09-12T00:42:24.838Z,13.90
2022-09-12T00:44:57.064Z,13.90
2022-09-12T00:47:33.938Z,13.90
2022-09-12T00:50:22.038Z,14.00
2022-09-12T00:53:09.364Z,13.90
2022-09-12T00:55:42.716Z,13.70
2022-09-12T00:58:44.532Z,13.40
2022-09-12T01:01:13.275Z,13.20
2022-09-12T01:03:41.863Z,13.00
2022-09-12T01:06:42.388Z,12.80
2022-09-12T01:09:26.834Z,12.70
2022-09-12T01:11:57.358Z,12.70
2022-09-12T01:14:26.882Z,12.70
2022-09-12T01:16:56.834Z,12.80
2022-09-12T01:19:58.673Z,12.90
2022-09-12T01:23:21.557Z,13.00
2022-09-12T01:26:26.358Z,13.10
2022-09-12T01:29:34.323Z,13.10
2022-09-12T01:32:44.718Z,13.10
2022-09-12T01:35:33.763Z,13.10
2022-09-12T01:38:18.819Z,13.10
2022-09-12T01:40:53.054Z,13.10
2022-09-12T01:43:45.799Z,13.10
2022-09-12T01:46:32.213Z,13.00
2022-09-12T01:49:09.403Z,13.00
2022-09-12T01:51:41.619Z,13.00
2022-09-12T01:54:21.378Z,12.90
2022-09-12T01:56:55.763Z,12.90
2022-09-12T01:59:33.573Z,12.90
2022-09-12T02:02:44.339Z,12.90
2022-09-12T02:05:24.023Z,13.00
2022-09-12T02:08:03.598Z,12.80
2022-09-12T02:10:34.498Z,12.70
2022-09-12T02:13:41.173Z,12.70
2022-09-12T02:16:29.687Z,12.80
2022-09-12T02:19:08.838Z,12.80
2022-09-12T02:21:39.598Z,12.80
2022-09-12T02:24:09.955Z,12.90
2022-09-12T02:27:00.703Z,12.80
2022-09-12T02:29:27.698Z,12.90
2022-09-12T02:32:11.878Z,13.00
2022-09-12T02:34:49.586Z,13.00
2022-09-12T02:37:45.698Z,13.00
2022-09-12T02:40:14.047Z,13.00
2022-09-12T02:42:41.483Z,13.00
2022-09-12T02:45:10.317Z,12.90
2022-09-12T02:47:44.358Z,12.80
2022-09-12T02:50:11.953Z,12.70
2022-09-12T02:52:40.026Z,12.50
2022-09-12T02:55:08.718Z,12.50
2022-09-12T02:57:35.778Z,12.40
2022-09-12T03:00:03.880Z,12.30
2022-09-12T03:03:13.494Z,12.30
2022-09-12T03:06:02.293Z,12.40
2022-09-12T03:09:00.681Z,12.40
2022-09-12T03:11:37.478Z,12.60
2022-09-12T03:14:31.565Z,12.60
2022-09-12T03:17:17.023Z,12.70
2022-09-12T03:19:58.879Z,12.70
2022-09-12T03:22:40.739Z,12.70
2022-09-12T03:25:28.239Z,12.80
2022-09-12T03:28:16.399Z,12.60
2022-09-12T03:30:48.405Z,12.70
2022-09-12T03:33:18.498Z,12.70
2022-09-12T03:35:46.738Z,12.80
2022-09-12T03:38:13.778Z,12.80
2022-09-12T03:40:41.563Z,12.80
2022-09-12T03:43:10.213Z,12.90
2022-09-12T03:45:38.245Z,12.90
2022-09-12T03:48:06.464Z,12.70
2022-09-12T03:50:34.166Z,12.70
2022-09-12T03:53:01.788Z,12.60
2022-09-12T03:55:29.063Z,12.60
2022-09-12T03:57:56.894Z,12.60
2022-09-12T04:00:24.266Z,12.60
2022-09-12T04:02:57.015Z,12.50
2022-09-12T04:05:25.694Z,12.40
2022-09-12T04:07:53.164Z,12.40
2022-09-12T04:10:20.279Z,12.50
2022-09-12T04:12:47.282Z,12.50
2022-09-12T04:15:14.464Z,12.60
2022-09-12T04:17:41.473Z,12.80
2022-09-12T04:20:08.734Z,12.90
2022-09-12T04:22:35.893Z,13.00
2022-09-12T04:25:03.704Z,13.00
2022-09-12T04:27:31.198Z,13.00
2022-09-12T04:30:00.186Z,13.00
2022-09-12T04:32:27.240Z,13.10
2022-09-12T04:34:54.243Z,13.00
2022-09-12T04:37:22.520Z,13.00
2022-09-12T04:39:49.983Z,13.00
2022-09-12T04:42:17.214Z,13.10
2022-09-12T04:44:44.284Z,13.10
2022-09-12T04:47:11.338Z,13.20
2022-09-12T04:49:38.458Z,13.30
2022-09-12T04:52:05.534Z,13.50
2022-09-12T04:54:32.879Z,13.90
2022-09-12T04:57:00.378Z,14.30
2022-09-12T04:59:27.854Z,14.60
2022-09-12T05:01:54.995Z,14.70
2022-09-12T05:04:22.262Z,14.60
2022-09-12T05:06:49.919Z,14.50
2022-09-12T05:09:16.888Z,14.70
2022-09-12T05:14:33.653Z,15.40
2022-09-12T05:17:02.057Z,15.50
2022-09-12T05:19:31.299Z,15.90
2022-09-12T05:21:59.313Z,16.20
2022-09-12T05:24:26.358Z,16.70
2022-09-12T05:26:53.478Z,17.20
2022-09-12T05:29:20.575Z,17.30
2022-09-12T05:31:50.290Z,17.40
2022-09-12T05:34:17.373Z,17.40
2022-09-12T05:36:44.426Z,17.50
2022-09-12T05:39:11.478Z,17.60
2022-09-12T05:41:38.665Z,17.50
2022-09-12T05:44:07.740Z,17.40
2022-09-12T05:46:40.382Z,17.50
2022-09-12T05:49:10.224Z,17.60
2022-09-12T05:51:41.675Z,17.70
2022-09-12T05:54:12.148Z,17.70
2022-09-12T05:56:41.424Z,17.50
2022-09-12T05:59:15.016Z,17.40
2022-09-12T06:01:43.169Z,17.80
2022-09-12T06:04:10.778Z,18.10
2022-09-12T06:06:42.064Z,18.20
2022-09-12T06:09:10.219Z,18.20
2022-09-12T06:11:40.929Z,18.30
2022-09-12T06:14:10.378Z,18.10
2022-09-12T06:16:37.997Z,18.40
2022-09-12T06:19:14.046Z,18.50
2022-09-12T06:21:41.063Z,18.50
2022-09-12T06:24:08.714Z,18.60
2022-09-12T06:26:36.830Z,18.60
2022-09-12T06:29:05.276Z,18.60
2022-09-12T06:31:34.884Z,18.70
2022-09-12T06:34:05.292Z,18.60
2022-09-12T06:36:45.814Z,19.00
2022-09-12T06:39:18.439Z,19.10
2022-09-12T06:41:46.248Z,19.40
2022-09-12T06:44:16.391Z,19.50
2022-09-12T06:46:44.649Z,19.60
2022-09-12T06:49:12.328Z,19.60
2022-09-12T06:51:39.570Z,19.60
2022-09-12T06:54:06.594Z,19.50
2022-09-12T06:56:33.779Z,19.50
2022-09-12T06:59:00.783Z,19.50
2022-09-12T07:01:30.682Z,19.60
2022-09-12T07:04:00.368Z,20.00
2022-09-12T07:06:32.179Z,20.20
2022-09-12T07:09:01.328Z,20.50
2022-09-12T07:11:36.812Z,20.60
2022-09-12T07:14:05.814Z,20.70
2022-09-12T07:16:34.963Z,20.90
2022-09-12T07:19:03.713Z,21.00
2022-09-12T07:21:31.513Z,20.90
2022-09-12T07:23:59.185Z,20.80
2022-09-12T07:26:28.199Z,20.50
2022-09-12T07:29:12.861Z,20.50
2022-09-12T07:31:45.302Z,20.80
2022-09-12T07:34:12.409Z,20.90
2022-09-12T07:36:40.031Z,21.30
2022-09-12T07:39:07.647Z,22.10
2022-09-12T07:41:34.952Z,23.10
2022-09-12T07:44:03.637Z,23.90
2022-09-12T07:46:32.208Z,24.00
2022-09-12T07:49:00.383Z,24.40
2022-09-12T07:51:31.000Z,25.60
2022-09-12T07:53:58.868Z,26.80
2022-09-12T07:56:31.124Z,28.40
2022-09-12T07:58:59.296Z,28.70
2022-09-12T08:01:28.084Z,30.10
2022-09-12T08:03:59.410Z,30.20
2022-09-12T08:06:28.819Z,31.00
2022-09-12T08:08:57.326Z,31.40
2022-09-12T08:11:26.359Z,31.60
2022-09-12T08:13:56.337Z,32.00
2022-09-12T08:16:26.307Z,32.10
2022-09-12T08:18:54.053Z,31.40
2022-09-12T08:21:27.895Z,31.10
2022-09-12T08:23:57.991Z,32.00
2022-09-12T08:26:25.228Z,31.80
2022-09-12T08:28:53.651Z,30.70
2022-09-12T08:31:23.169Z,29.60
2022-09-12T08:33:50.596Z,28.30
2022-09-12T08:36:20.561Z,27.80
2022-09-12T08:38:54.434Z,27.30
2022-09-12T08:41:40.153Z,26.70
2022-09-12T08:44:26.032Z,26.20
2022-09-12T08:47:17.372Z,26.60
2022-09-12T08:50:03.684Z,26.80
2022-09-12T08:52:37.788Z,26.80
2022-09-12T08:55:13.251Z,26.50
2022-09-12T08:57:40.864Z,26.40
2022-09-12T09:00:14.198Z,26.40
2022-09-12T09:03:02.882Z,26.50
2022-09-12T09:05:57.413Z,26.50
2022-09-12T09:08:31.338Z,26.90
2022-09-12T09:11:01.049Z,27.00
2022-09-12T09:14:15.161Z,26.40
2022-09-12T09:16:44.917Z,25.80
2022-09-12T09:19:17.888Z,25.80
2022-09-12T09:21:53.168Z,25.70
2022-09-12T09:24:24.999Z,25.70
2022-09-12T09:27:03.350Z,25.60
2022-09-12T09:29:44.739Z,25.60
2022-09-12T09:32:28.883Z,25.80
2022-09-12T09:34:55.957Z,26.00
2022-09-12T09:37:33.348Z,26.00
2022-09-12T09:40:00.366Z,26.00
2022-09-12T09:43:03.353Z,26.00
2022-09-12T09:45:30.492Z,26.10
2022-09-12T09:48:16.168Z,26.10
2022-09-12T09:50:44.037Z,25.90
2022-09-12T09:53:29.633Z,25.90
2022-09-12T09:55:58.123Z,25.90
2022-09-12T09:58:30.063Z,25.70
2022-09-12T10:01:04.576Z,25.40
2022-09-12T10:03:55.628Z,25.40
2022-09-12T10:06:31.228Z,25.30
2022-09-12T10:09:09.147Z,25.30
2022-09-12T10:11:40.593Z,25.10
2022-09-12T10:14:31.428Z,24.90
2022-09-12T10:16:59.753Z,25.00
2022-09-12T10:19:40.499Z,25.00
2022-09-12T10:22:15.029Z,24.90
2022-09-12T10:24:47.323Z,24.60
2022-09-12T10:27:15.979Z,24.30
2022-09-12T10:29:52.028Z,23.90
2022-09-12T10:32:29.973Z,23.80
2022-09-12T10:35:09.137Z,23.90
2022-09-12T10:37:39.998Z,23.80
2022-09-12T10:40:21.296Z,24.00
2022-09-12T10:42:54.353Z,24.10
2022-09-12T10:45:38.148Z,24.20
2022-09-12T10:48:35.727Z,24.20
2022-09-12T10:51:02.753Z,24.10
2022-09-12T10:53:40.891Z,24.20
2022-09-12T10:56:24.653Z,23.90
2022-09-12T10:59:16.762Z,24.00
2022-09-12T11:01:49.709Z,24.10
2022-09-12T11:04:38.532Z,24.00
2022-09-12T11:07:45.860Z,23.80
2022-09-12T11:10:37.460Z,23.70
2022-09-12T11:13:21.585Z,23.60
2022-09-12T11:16:12.838Z,23.80
2022-09-12T11:19:07.128Z,23.80
2022-09-12T11:22:01.908Z,23.90
2022-09-12T11:24:40.293Z,23.80
2022-09-12T11:27:31.834Z,23.60
2022-09-12T11:30:02.933Z,23.80
2022-09-12T11:33:05.818Z,24.20
2022-09-12T11:35:35.257Z,24.40
2022-09-12T11:38:11.419Z,24.70
2022-09-12T11:40:59.852Z,24.90
2022-09-12T11:43:44.168Z,25.10
2022-09-12T11:46:43.080Z,25.20
2022-09-12T11:49:12.390Z,25.20
2022-09-12T11:51:51.318Z,25.10
2022-09-12T11:54:30.608Z,24.60
2022-09-12T11:57:19.888Z,23.80
2022-09-12T11:59:57.215Z,23.30
2022-09-12T12:02:40.483Z,22.90
2022-09-12T12:05:21.003Z,23.00
2022-09-12T12:08:01.984Z,22.90
2022-09-12T12:10:34.388Z,22.80
2022-09-12T12:13:13.994Z,22.70
2022-09-12T12:15:50.913Z,22.30
2022-09-12T12:18:25.693Z,22.30
2022-09-12T12:20:54.528Z,22.30
2022-09-12T12:23:31.475Z,22.30
2022-09-12T12:26:00.827Z,22.30
2022-09-12T12:28:43.151Z,22.30
2022-09-12T12:31:11.453Z,22.30
2022-09-12T12:33:38.537Z,22.20
2022-09-12T12:36:09.028Z,22.20
2022-09-12T12:38:38.910Z,22.40
2022-09-12T12:41:29.134Z,22.60
2022-09-12T12:43:57.710Z,22.80
2022-09-12T12:46:27.710Z,22.90
2022-09-12T12:49:21.729Z,22.90
2022-09-12T12:51:56.809Z,22.90
2022-09-12T12:54:34.893Z,23.10
2022-09-12T12:57:17.613Z,23.10
2022-09-12T12:59:47.635Z,23.10
2022-09-12T13:02:29.469Z,23.50
2022-09-12T13:04:59.875Z,23.60
2022-09-12T13:07:32.709Z,23.20
2022-09-12T13:10:01.357Z,23.10
2022-09-12T13:12:33.588Z,23.10
2022-09-12T13:15:05.869Z,23.50
2022-09-12T13:17:40.739Z,23.70
2022-09-12T13:20:29.776Z,23.80
2022-09-12T13:22:57.837Z,24.00
2022-09-12T13:25:37.680Z,24.10
2022-09-12T13:28:04.605Z,24.10
2022-09-12T13:30:35.405Z,24.30
2022-09-12T13:33:17.234Z,24.40
2022-09-12T13:35:53.989Z,24.40
2022-09-12T13:38:50.194Z,24.50
2022-09-12T13:41:51.324Z,24.30
2022-09-12T13:44:22.064Z,24.10
2022-09-12T13:46:50.463Z,24.10
2022-09-12T13:49:35.953Z,24.20
2022-09-12T13:52:22.908Z,24.30
2022-09-12T13:54:53.417Z,24.50
2022-09-12T13:57:37.769Z,24.40
2022-09-12T14:00:19.753Z,24.20
2022-09-12T14:02:50.465Z,23.90
2022-09-12T14:05:24.324Z,23.70
2022-09-12T14:07:56.386Z,23.40
2022-09-12T14:10:36.033Z,23.60
2022-09-12T14:13:11.992Z,23.70
2022-09-12T14:15:40.193Z,23.80
2022-09-12T14:18:08.860Z,23.70
2022-09-12T14:20:38.717Z,23.70
2022-09-12T14:23:29.434Z,23.50
2022-09-12T14:25:58.783Z,23.50
2022-09-12T14:28:28.397Z,23.40
2022-09-12T14:31:21.272Z,23.30
2022-09-12T14:33:54.278Z,23.00
2022-09-12T14:36:27.099Z,22.90
2022-09-12T14:38:58.537Z,23.10
2022-09-12T14:41:44.172Z,23.10
2022-09-12T14:44:23.713Z,23.20
2022-09-12T14:46:51.313Z,23.10
2022-09-12T14:49:34.647Z,23.00
2022-09-12T14:52:08.212Z,22.90
2022-09-12T14:54:40.404Z,22.90
2022-09-12T14:57:19.372Z,23.10
2022-09-12T14:59:46.578Z,23.10
2022-09-12T15:02:20.344Z,23.10
2022-09-12T15:04:53.541Z,23.10
2022-09-12T15:07:40.703Z,23.00
2022-09-12T15:10:29.254Z,23.00
2022-09-12T15:13:14.437Z,22.90
2022-09-12T15:15:44.476Z,22.80
2022-09-12T15:18:12.328Z,22.70
2022-09-12T15:20:41.844Z,22.40
2022-09-12T15:23:15.948Z,22.40
2022-09-12T15:25:43.080Z,22.20
2022-09-12T15:28:18.788Z,22.30
2022-09-12T15:30:47.952Z,22.20
2022-09-12T15:33:16.703Z,22.20
2022-09-12T15:35:43.883Z,22.20
2022-09-12T15:38:11.113Z,22.30
2022-09-12T15:40:38.408Z,22.30
2022-09-12T15:43:05.704Z,22.20
2022-09-12T15:45:34.668Z,22.30
2022-09-12T15:48:03.486Z,22.20
2022-09-12T15:50:31.348Z,22.20
2022-09-12T15:52:58.928Z,22.20
2022-09-12T15:55:32.260Z,22.10
2022-09-12T15:58:04.908Z,21.90
2022-09-12T16:00:33.943Z,21.70
2022-09-12T16:03:01.388Z,21.60
2022-09-12T16:05:28.563Z,21.50
2022-09-12T16:07:55.959Z,21.50
2022-09-12T16:10:30.295Z,21.50
2022-09-12T16:13:00.065Z,21.50
2022-09-12T16:15:27.266Z,21.40
2022-09-12T16:17:54.483Z,21.40
2022-09-12T16:20:23.104Z,21.30
2022-09-12T16:22:50.225Z,21.30
2022-09-12T16:25:17.744Z,21.20
2022-09-12T16:27:45.106Z,21.10
2022-09-12T16:30:13.249Z,21.00
2022-09-12T16:32:40.664Z,20.90
2022-09-12T16:35:08.289Z,20.80
2022-09-12T16:37:35.523Z,20.80
2022-09-12T16:40:04.964Z,20.80
2022-09-12T16:42:32.324Z,20.80
2022-09-12T16:44:59.358Z,20.70
2022-09-12T16:47:26.378Z,20.50
2022-09-12T16:49:53.653Z,20.40
2022-09-12T16:52:20.836Z,20.30
2022-09-12T16:54:47.824Z,20.20
2022-09-12T16:57:14.947Z,20.10
2022-09-12T16:59:41.950Z,20.00
2022-09-12T17:02:13.179Z,19.90
2022-09-12T17:04:40.794Z,19.80
2022-09-12T17:07:08.444Z,19.70
2022-09-12T17:09:35.483Z,19.70
2022-09-12T17:12:02.928Z,19.60
2022-09-12T17:14:30.063Z,19.50
2022-09-12T17:16:57.138Z,19.50
2022-09-12T17:19:33.220Z,19.40
2022-09-12T17:22:00.344Z,19.30
2022-09-12T17:24:27.459Z,19.30
2022-09-12T17:26:54.790Z,19.20
2022-09-12T17:29:21.823Z,19.20
2022-09-12T17:31:49.260Z,19.10
2022-09-12T17:34:17.911Z,19.00
2022-09-12T17:36:46.337Z,19.00
2022-09-12T17:39:14.267Z,18.90
2022-09-12T17:41:43.022Z,18.80
2022-09-12T17:44:13.269Z,18.70
2022-09-12T17:46:41.400Z,18.70
2022-09-12T17:49:15.812Z,18.50
2022-09-12T17:51:44.047Z,18.40
2022-09-12T17:54:15.008Z,18.40
2022-09-12T17:56:43.559Z,18.20
2022-09-12T17:59:14.863Z,18.10
2022-09-12T18:02:01.261Z,18.00
2022-09-12T18:04:28.362Z,17.90
2022-09-12T18:06:57.607Z,17.90
2022-09-12T18:09:28.198Z,17.80
2022-09-12T18:11:55.381Z,17.80
2022-09-12T18:14:23.004Z,17.70
2022-09-12T18:19:59.478Z,17.70
2022-09-12T18:22:26.458Z,17.70
2022-09-12T18:24:53.407Z,17.70
2022-09-12T18:27:20.548Z,17.60
2022-09-12T18:30:04.248Z,17.60
2022-09-12T18:32:34.663Z,17.60
2022-09-12T18:35:01.699Z,17.50
2022-09-12T18:37:28.662Z,17.50
2022-09-12T18:39:56.409Z,17.40
2022-09-12T18:42:24.753Z,17.40
2022-09-12T18:44:52.170Z,17.40
2022-09-12T18:47:19.124Z,17.40
2022-09-12T18:49:46.114Z,17.40
2022-09-12T18:52:13.299Z,17.30
2022-09-12T18:54:40.692Z,17.30
2022-09-12T18:57:07.638Z,17.40
2022-09-12T18:59:34.723Z,17.50
2022-09-12T19:02:01.851Z,17.50
2022-09-12T19:04:28.983Z,17.50
2022-09-12T19:06:56.044Z,17.50
2022-09-12T19:09:24.004Z,17.40
2022-09-12T19:11:52.818Z,17.40
2022-09-12T19:14:23.220Z,17.40
2022-09-12T19:16:51.019Z,17.40
2022-09-12T19:19:18.217Z,17.40
2022-09-12T19:21:46.131Z,17.40
2022-09-12T19:24:14.545Z,17.40
2022-09-12T19:26:41.790Z,17.50
2022-09-12T19:29:09.476Z,17.50
2022-09-12T19:31:37.003Z,17.60
2022-09-12T19:34:07.116Z,17.50
2022-09-12T19:36:44.967Z,17.50
2022-09-12T19:39:12.318Z,17.50
2022-09-12T19:41:39.454Z,17.50
2022-09-12T19:44:06.557Z,17.40
2022-09-12T19:46:33.667Z,17.40
2022-09-12T19:49:00.799Z,17.30
2022-09-12T19:51:27.837Z,17.30
2022-09-12T19:53:55.138Z,17.20
2022-09-12T19:56:22.324Z,17.20
2022-09-12T19:58:55.811Z,17.30
2022-09-12T20:01:28.641Z,17.30
2022-09-12T20:03:57.163Z,17.30
2022-09-12T20:06:24.823Z,17.30
2022-09-12T20:08:51.780Z,17.10
2022-09-12T20:11:22.161Z,16.70
2022-09-12T20:13:49.799Z,16.40
2022-09-12T20:16:23.319Z,16.10
2022-09-12T20:18:59.159Z,15.70
2022-09-12T20:21:35.968Z,15.50
2022-09-12T20:24:08.363Z,15.50
2022-09-12T20:26:35.452Z,15.50
2022-09-12T20:29:03.762Z,15.70
2022-09-12T20:31:31.330Z,15.70
2022-09-12T20:33:58.483Z,15.60
2022-09-12T20:36:26.071Z,15.50
2022-09-12T20:38:56.980Z,15.50
2022-09-12T20:41:27.433Z,15.50
2022-09-12T20:43:56.481Z,15.50
2022-09-12T20:46:25.531Z,15.50
2022-09-12T20:48:53.258Z,15.60
2022-09-12T20:51:21.519Z,15.70
2022-09-12T20:53:52.683Z,15.70
2022-09-12T20:56:19.824Z,15.80
2022-09-12T20:58:46.823Z,15.80
2022-09-12T21:01:16.157Z,15.80
2022-09-12T21:03:44.873Z,15.70
2022-09-12T21:06:13.159Z,15.70
2022-09-12T21:08:40.883Z,15.70
2022-09-12T21:11:07.936Z,15.70
2022-09-12T21:13:35.985Z,15.80
2022-09-12T21:16:05.831Z,15.80
2022-09-12T21:18:33.853Z,15.80
2022-09-12T21:21:01.544Z,15.90
2022-09-12T21:23:29.433Z,15.90
2022-09-12T21:25:56.683Z,15.80
2022-09-12T21:28:26.583Z,15.80
2022-09-12T21:30:56.510Z,15.80
2022-09-12T21:33:27.858Z,15.70
2022-09-12T21:35:55.860Z,15.70
2022-09-12T21:38:26.223Z,15.60
2022-09-12T21:41:04.869Z,15.60
2022-09-12T21:43:31.938Z,15.60
2022-09-12T21:46:01.531Z,15.60
2022-09-12T21:48:32.029Z,15.50
2022-09-12T21:51:02.414Z,15.50
2022-09-12T21:53:32.336Z,15.50
2022-09-12T21:56:09.599Z,15.60
2022-09-12T21:58:41.760Z,15.60
2022-09-12T22:01:12.024Z,15.60
2022-09-12T22:03:42.655Z,15.50
2022-09-12T22:06:12.040Z,15.60
2022-09-12T22:08:39.898Z,15.60
2022-09-12T22:11:09.734Z,15.60
2022-09-12T22:13:43.504Z,15.60
2022-09-12T22:16:10.839Z,15.60
2022-09-12T22:18:42.058Z,15.70
2022-09-12T22:21:17.260Z,15.70
2022-09-12T22:24:05.215Z,15.70
2022-09-12T22:26:45.059Z,15.60
2022-09-12T22:29:14.761Z,15.50
2022-09-12T22:31:41.894Z,15.50
2022-09-12T22:34:08.943Z,15.50
2022-09-12T22:36:38.798Z,15.50
2022-09-12T22:39:07.179Z,15.40
2022-09-12T22:41:34.219Z,15.40
2022-09-12T22:44:01.324Z,15.40
2022-09-12T22:46:30.281Z,15.30
2022-09-12T22:48:57.313Z,15.30
2022-09-12T22:51:24.469Z,15.30
2022-09-12T22:53:51.609Z,15.20
2022-09-12T22:56:19.230Z,15.20
2022-09-12T22:58:46.343Z,15.20
2022-09-12T23:01:13.405Z,15.10
2022-09-12T23:03:41.757Z,15.20
2022-09-12T23:06:10.257Z,15.20
2022-09-12T23:08:40.178Z,15.30
2022-09-12T23:11:15.397Z,15.20
2022-09-12T23:13:45.133Z,15.20
2022-09-12T23:16:24.570Z,15.10
2022-09-12T23:18:52.478Z,15.10
2022-09-12T23:21:21.570Z,15.10
2022-09-12T23:23:49.147Z,15.00
2022-09-12T23:26:19.222Z,15.00
2022-09-12T23:28:55.369Z,14.90
2022-09-12T23:31:25.237Z,14.80
2022-09-12T23:33:58.273Z,14.80
2022-09-12T23:36:27.295Z,14.80
2022-09-12T23:39:16.658Z,14.70
2022-09-12T23:41:45.324Z,14.60
2022-09-12T23:44:15.865Z,14.50
2022-09-12T23:46:44.062Z,14.40
2022-09-12T23:49:10.998Z,14.30
2022-09-12T23:51:38.252Z,14.20
2022-09-12T23:54:07.064Z,14.10
2022-09-12T23:56:37.270Z,14.10
2022-09-12T23:59:09.323Z,14.00
